Meath Environmental Platform

Observations

Time Sensor AQI SAQ Temp °C Hum % Pres Pa CO μg/m³ H₂S μg/m³ NO μg/m³ NO₂ μg/m³ O₃ μg/m³ SO₂ μg/m³ CO₂e PPM VOC PPM PM1 μg/m³ PM2.5 μg/m³ PM4 μg/m³ PM10 μg/m³ TPS µm
Thursday 13 August 2026
06:28 Trim Patrick St 2 20.8 76 38,460 0 5.85 1.72 13.74 23.42 3.87 6.29 11.12 12.23
06:27 Trim Market St 2 21.3 74 41,566 0 0 1.41 4.77 40.24 0 2.85 4.81 7.53
06:27 Trim Patrick St 2 20.8 77 38,460 0 3.74 1.58 35.06 22.6 3.12 6.29 9.68 10.65
06:26 Trim Market St 2 21.2 74 41,651 0.05 0 1.48 3.65 36.6 0 3.56 5.29 8.14
06:26 Trim Patrick St 2 20.8 76 38,460 0 0 1.65 6.52 29.2 4.05 8 11.14 12.26
06:25 Trim Market St 2 21.2 74 41,620 0.06 0 1.39 3.13 38.92 0 4.99 5.29 10.56
06:25 Trim Patrick St 2 20.7 77 38,460 0 0.42 1.7 2.79 28.28 4.28 5.43 10.39 11.43
06:24 Trim Market St 2 21.3 74 41,307 0.05 0 1.45 2.76 39.82 0 2.14 3.85 6.32
06:24 Trim Patrick St 2 20.8 77 38,460 0 2.11 1.71 12.19 32.04 3.83 4.57 8.97 9.87
06:23 Trim Market St 2 21.3 74 40,966 0.03 0 1.39 4.42 40.27 0 2.85 4.81 7.53
06:23 Trim Patrick St 2 20.8 77 38,460 0 2.53 1.66 16.43 23.22 3.61 7.14 11.08 12.19
06:22 Trim Market St 2 21.3 74 40,627 0 0 1.37 2.34 49.01 0 4.28 5.77 8.74
06:22 Trim Patrick St 2 20.7 76 38,460 0 1.79 1.6 1.73 35.53 3.95 6.29 11.12 12.23
06:21 Trim Patrick St 2 20.7 77 38,460 0 7.75 1.6 21.88 27.66 3.88 6.29 9.66 10.63
06:20 Trim Market St 2 21.3 74 40,368 0 0 1.37 2.58 42.01 0 2.85 4.32 6.93
06:20 Trim Patrick St 2 20.7 76 38,460 0 4.01 1.64 18.85 31.01 3.51 6.29 9 9.9
06:19 Trim Patrick St 2 20.8 77 38,460 0 0.37 1.73 6.76 30.75 4.51 6.29 8.26 9.08
06:18 Trim Patrick St 2 20.7 77 38,460 0 3.06 1.69 11.52 30.23 4.21 6.29 10.39 11.42
06:17 Trim Market St 2 21.3 74 40,037 0 0 1.41 2.73 40.83 0 3.56 4.32 6.93
06:17 Trim Patrick St 2 20.7 77 38,460 0 4.06 1.73 25.39 18.34 4.09 5.43 9.69 10.65